Time;durP1;ratioP1;P1;durP2;ratioP2;P2;SDS_P1;SDS_P2;PMS_P1;PMS_P2;Temp;Humidity;BMP_temperature;BMP_pressure;BME280_temperature;BME280_humidity;BME280_pressure;Samples;Min_cycle;Max_cycle;Signal;HPM_P1;HPM_P2
2022/04/05 00:00:31;;;;;;;9.03;6.57;;;;;;;7.95;49.16;97085.06;8378794;28;20236;-64
2022/04/05 00:04:36;;;;;;;8.20;6.87;;;;;;;8.04;48.71;97088.97;8317450;28;20240;-64
2022/04/05 00:08:39;;;;;;;11.67;7.50;;;;;;;8.08;48.55;97079.34;8317081;28;20243;-65
2022/04/05 00:12:42;;;;;;;8.57;7.10;;;;;;;8.14;48.33;97076.44;8317301;28;20398;-65
2022/04/05 00:16:45;;;;;;;8.20;7.13;;;;;;;8.27;47.98;97068.97;8346899;28;20228;-65
2022/04/05 00:20:49;;;;;;;10.07;7.10;;;;;;;8.18;48.15;97059.91;8348827;28;20236;-64
2022/04/05 00:24:52;;;;;;;8.93;7.40;;;;;;;8.16;48.20;97052.25;8348489;28;20229;-65
2022/04/05 00:28:55;;;;;;;8.83;7.93;;;;;;;8.16;48.29;97044.50;8348316;28;20359;-64
2022/04/05 00:32:58;;;;;;;7.53;6.60;;;;;;;8.35;47.78;97033.28;8347074;28;20243;-64
2022/04/05 00:37:02;;;;;;;8.17;7.43;;;;;;;7.99;48.29;97035.03;8348919;28;20243;-64
2022/04/05 00:41:07;;;;;;;8.80;7.13;;;;;;;8.17;48.16;97043.63;8348763;28;20434;-64
2022/04/05 00:45:11;;;;;;;9.07;7.23;;;;;;;8.08;48.29;97036.31;8348277;28;20236;-64
2022/04/05 00:49:17;;;;;;;9.00;7.50;;;;;;;7.98;48.04;97051.41;8348658;28;20235;-65
2022/04/05 00:53:25;;;;;;;8.33;7.53;;;;;;;8.13;48.14;97034.38;8348415;28;20236;-64
2022/04/05 00:57:29;;;;;;;8.00;7.30;;;;;;;8.17;47.70;97041.03;8348435;28;20239;-64
2022/04/05 01:01:32;;;;;;;7.43;6.67;;;;;;;8.14;47.73;97035.19;8348348;28;20228;-64
2022/04/05 01:05:35;;;;;;;8.20;7.30;;;;;;;8.21;47.47;97029.66;8348207;28;20535;-64
2022/04/05 01:09:40;;;;;;;8.43;7.10;;;;;;;8.25;47.25;97032.09;8348159;28;20240;-65
2022/04/05 01:13:43;;;;;;;7.80;6.97;;;;;;;8.07;47.69;97021.75;8348032;28;20223;-64
2022/04/05 01:17:46;;;;;;;7.67;6.93;;;;;;;8.29;47.16;97012.97;8347893;28;20235;-64
2022/04/05 01:21:48;;;;;;;7.43;6.70;;;;;;;8.12;47.46;97006.88;8347583;28;20228;-64
2022/04/05 01:25:53;;;;;;;7.93;6.80;;;;;;;8.19;47.39;97017.75;8347991;28;20228;-65
2022/04/05 01:29:56;;;;;;;7.30;6.60;;;;;;;8.27;46.96;97012.22;8347820;28;20543;-64
2022/04/05 01:33:59;;;;;;;8.13;6.80;;;;;;;8.21;47.42;97024.50;8347834;28;20444;-64
2022/04/05 01:38:03;;;;;;;9.33;7.37;;;;;;;8.31;47.12;97013.72;8347487;28;20236;-64
2022/04/05 01:42:09;;;;;;;9.20;7.07;;;;;;;8.20;48.18;97011.66;8347646;28;20236;-64
2022/04/05 01:46:12;;;;;;;7.43;6.67;;;;;;;8.23;48.27;97007.19;8349495;28;20201;-64
2022/04/05 01:50:15;;;;;;;7.47;6.70;;;;;;;8.25;48.96;97004.53;8349321;28;20214;-64
2022/04/05 01:54:19;;;;;;;8.20;7.27;;;;;;;8.47;48.65;96996.56;8349210;28;20308;-64
2022/04/05 01:58:24;;;;;;;11.13;7.20;;;;;;;8.13;49.88;96989.66;8349099;28;20228;-64
2022/04/05 02:02:27;;;;;;;8.37;6.87;;;;;;;8.23;50.25;96990.88;8349291;28;20216;-64
2022/04/05 02:06:30;;;;;;;7.73;6.93;;;;;;;8.36;50.10;96991.09;8347891;28;20236;-64
2022/04/05 02:10:33;;;;;;;9.63;7.43;;;;;;;8.25;50.93;96977.91;8346919;28;20526;-64
2022/04/05 02:14:40;;;;;;;9.97;6.83;;;;;;;8.12;50.98;96978.53;8346891;28;20228;-64
2022/04/05 02:18:43;;;;;;;7.20;6.17;;;;;;;8.13;51.01;96969.03;8346829;28;20555;-65
2022/04/05 02:22:46;;;;;;;8.77;6.90;;;;;;;7.88;51.76;96977.16;8346878;28;20236;-64
2022/04/05 02:26:52;;;;;;;8.73;7.03;;;;;;;7.77;52.33;96967.41;8346916;28;20232;-65
2022/04/05 02:30:56;;;;;;;8.70;7.07;;;;;;;7.96;52.24;96963.00;8346989;28;20536;-65
2022/04/05 02:35:02;;;;;;;7.87;7.00;;;;;;;7.75;53.18;96959.75;8348902;28;20240;-65
2022/04/05 02:39:05;;;;;;;7.90;7.10;;;;;;;7.69;54.58;96956.59;8352914;28;20240;-64
2022/04/05 02:43:08;;;;;;;8.03;7.10;;;;;;;7.74;54.75;96958.06;8352522;28;20299;-65
2022/04/05 02:47:14;;;;;;;8.67;7.37;;;;;;;7.63;55.10;96950.88;8352393;28;20523;-64
2022/04/05 02:51:20;;;;;;;9.40;7.27;;;;;;;7.51;56.18;96958.34;8352382;28;20244;-64
2022/04/05 02:55:23;;;;;;;8.27;7.30;;;;;;;7.64;56.24;96955.09;8352178;28;20431;-65
2022/04/05 02:59:26;;;;;;;8.40;7.50;;;;;;;7.57;57.14;96947.75;8352461;28;20240;-65
2022/04/05 03:03:32;;;;;;;8.43;7.27;;;;;;;7.62;57.64;96953.50;8352020;28;20240;-64
2022/04/05 03:07:36;;;;;;;8.63;7.73;;;;;;;7.71;57.53;96947.91;8351747;28;20240;-64
2022/04/05 03:11:38;;;;;;;8.27;7.47;;;;;;;7.36;58.59;96947.84;8351793;28;20232;-65
2022/04/05 03:15:41;;;;;;;10.20;7.60;;;;;;;7.38;58.80;96961.50;8351981;28;20240;-64
2022/04/05 03:19:45;;;;;;;8.20;7.40;;;;;;;7.34;58.90;96946.28;8351756;28;20243;-64
2022/04/05 03:23:48;;;;;;;9.07;7.60;;;;;;;7.23;59.35;96952.78;8351520;28;20230;-64
2022/04/05 03:27:51;;;;;;;8.57;7.67;;;;;;;7.23;59.44;96957.94;8351526;28;20236;-66
2022/04/05 03:31:54;;;;;;;11.50;8.20;;;;;;;7.45;58.93;96951.75;8351414;28;20240;-64
2022/04/05 03:36:00;;;;;;;8.90;7.40;;;;;;;7.48;59.41;96955.91;8351324;28;20590;-64
2022/04/05 03:40:05;;;;;;;10.97;7.60;;;;;;;7.37;59.37;96943.56;8351011;28;20565;-64
2022/04/05 03:44:08;;;;;;;8.37;7.37;;;;;;;7.42;59.59;96939.00;8351014;28;20255;-64
2022/04/05 03:48:10;;;;;;;8.30;7.40;;;;;;;7.35;59.25;96960.81;8342292;28;20232;-65
2022/04/05 03:52:15;;;;;;;11.37;7.67;;;;;;;7.27;60.36;96948.28;8350507;28;20243;-64
2022/04/05 03:56:19;;;;;;;8.43;7.17;;;;;;;7.49;59.68;96950.69;8350598;28;20244;-64
2022/04/05 04:00:21;;;;;;;9.17;6.90;;;;;;;7.44;59.66;96950.91;8350362;28;20236;-65
2022/04/05 04:04:24;;;;;;;9.63;7.17;;;;;;;7.22;60.26;96943.38;8350602;28;20232;-65
2022/04/05 04:08:28;;;;;;;9.63;7.87;;;;;;;7.44;60.31;96958.66;8350110;28;20244;-65
2022/04/05 04:12:32;;;;;;;8.37;7.27;;;;;;;7.44;60.06;96944.91;8349928;28;20232;-64
2022/04/05 04:16:34;;;;;;;8.43;7.30;;;;;;;7.41;60.66;96945.91;8349835;28;20232;-64
2022/04/05 04:20:39;;;;;;;8.67;7.53;;;;;;;7.44;60.79;96952.63;8349570;28;20231;-64
2022/04/05 04:24:43;;;;;;;8.90;6.80;;;;;;;7.50;60.49;96970.41;8349501;28;20231;-64
2022/04/05 04:28:47;;;;;;;8.43;6.63;;;;;;;7.33;60.71;96962.63;8349270;28;20414;-64
2022/04/05 04:32:51;;;;;;;8.13;7.00;;;;;;;7.39;60.84;96970.06;8349032;28;20228;-64
2022/04/05 04:36:53;;;;;;;7.30;6.57;;;;;;;7.23;61.21;96983.69;8349003;28;20232;-65
2022/04/05 04:40:58;;;;;;;8.53;6.90;;;;;;;7.46;60.96;96976.59;8349047;28;20551;-64
2022/04/05 04:45:01;;;;;;;9.07;7.13;;;;;;;7.22;61.97;96976.84;8348804;28;20240;-64
2022/04/05 04:49:04;;;;;;;8.00;7.13;;;;;;;7.55;60.78;96977.91;8348755;28;20243;-64
2022/04/05 04:53:07;;;;;;;8.37;6.93;;;;;;;7.43;60.92;96964.69;8348431;28;20236;-64
2022/04/05 04:57:12;;;;;;;8.07;6.80;;;;;;;7.63;60.58;96970.63;8339428;28;20255;-65
2022/04/05 05:01:15;;;;;;;8.43;6.77;;;;;;;7.48;60.61;96961.88;8348261;28;20232;-65
2022/04/05 05:05:18;;;;;;;7.53;6.57;;;;;;;7.47;60.59;96972.28;8348295;28;20262;-64
2022/04/05 05:09:21;;;;;;;8.50;6.57;;;;;;;7.71;60.84;96973.69;8348079;28;20236;-65
2022/04/05 05:13:25;;;;;;;7.60;6.77;;;;;;;7.50;60.91;96967.81;8348133;28;20239;-65
2022/04/05 05:17:29;;;;;;;7.93;6.90;;;;;;;7.62;61.08;96972.38;8348086;28;20246;-64
2022/04/05 05:21:32;;;;;;;9.50;6.27;;;;;;;7.71;60.19;96965.09;8347874;28;20239;-64
2022/04/05 05:25:35;;;;;;;7.10;6.03;;;;;;;7.68;59.88;96986.72;8347820;28;20240;-64
2022/04/05 05:29:39;;;;;;;7.23;5.67;;;;;;;7.55;60.19;97001.91;8347689;28;20231;-64
2022/04/05 05:33:42;;;;;;;7.43;6.60;;;;;;;7.68;59.52;97009.06;8347611;28;20538;-64
2022/04/05 05:37:46;;;;;;;7.97;6.30;;;;;;;7.82;59.39;97004.06;8347724;28;20542;-64
2022/04/05 05:41:49;;;;;;;8.03;6.30;;;;;;;7.82;59.33;97002.34;8346612;28;20224;-65
2022/04/05 05:45:53;;;;;;;7.43;6.13;;;;;;;7.81;58.87;97008.41;8347511;28;20231;-65
2022/04/05 05:49:56;;;;;;;6.83;6.20;;;;;;;7.83;59.25;97009.16;8347294;28;20240;-64
2022/04/05 05:53:59;;;;;;;8.23;6.20;;;;;;;7.89;58.79;97013.19;8347196;28;20243;-64
2022/04/05 05:58:03;;;;;;;6.93;5.70;;;;;;;7.91;58.93;96998.47;8346865;28;20239;-64
2022/04/05 06:02:07;;;;;;;5.87;5.27;;;;;;;7.94;58.72;97013.81;8346735;28;20238;-64
2022/04/05 06:06:10;;;;;;;6.60;5.87;;;;;;;7.78;58.85;97030.91;8346236;28;20526;-65
2022/04/05 06:10:14;;;;;;;8.10;6.20;;;;;;;8.00;58.51;97028.97;8351211;28;20243;-65
2022/04/05 06:14:17;;;;;;;6.53;5.70;;;;;;;8.06;58.28;97035.56;8353482;28;20240;-65
2022/04/05 06:18:21;;;;;;;8.97;6.00;;;;;;;8.02;58.60;97045.19;8353273;28;20523;-64
2022/04/05 06:22:24;;;;;;;9.40;6.27;;;;;;;8.03;58.43;97053.75;8353509;28;20236;-66
2022/04/05 06:26:27;;;;;;;8.30;5.43;;;;;;;8.03;58.68;97038.28;8353432;28;20446;-64
2022/04/05 06:30:32;;;;;;;8.27;6.30;;;;;;;8.21;58.39;97036.56;8353190;28;20230;-65
2022/04/05 06:34:36;;;;;;;6.53;5.70;;;;;;;7.98;59.44;97046.25;8353105;28;20621;-65
2022/04/05 06:38:39;;;;;;;6.50;5.73;;;;;;;7.96;60.26;97048.06;8353026;28;20239;-65
2022/04/05 06:42:50;;;;;;;6.47;5.57;;;;;;;7.78;60.28;97057.50;8352844;28;20429;-65
2022/04/05 06:46:53;;;;;;;6.40;5.80;;;;;;;7.91;59.96;97057.75;8352776;28;20237;-65
2022/04/05 06:50:57;;;;;;;5.80;5.20;;;;;;;8.03;59.85;97054.63;8352295;28;20244;-65
2022/04/05 06:55:00;;;;;;;7.97;5.87;;;;;;;8.08;59.74;97062.13;8352748;28;20236;-64
2022/04/05 06:59:03;;;;;;;7.47;5.67;;;;;;;8.05;60.41;97057.09;8352389;28;20251;-65
2022/04/05 07:03:06;;;;;;;8.13;6.33;;;;;;;8.06;60.79;97056.19;8352257;28;20514;-65
2022/04/05 07:07:10;;;;;;;6.63;5.50;;;;;;;7.98;61.27;97056.56;8351870;28;20256;-66
2022/04/05 07:11:13;;;;;;;6.57;5.53;;;;;;;7.89;61.81;97059.59;8352306;28;20240;-65
2022/04/05 07:15:16;;;;;;;5.90;5.27;;;;;;;7.76;62.05;97055.91;8351910;28;20247;-65
2022/04/05 07:19:19;;;;;;;5.93;5.17;;;;;;;8.03;61.73;97064.94;8351315;28;20240;-64
2022/04/05 07:23:24;;;;;;;6.80;5.90;;;;;;;8.07;62.17;97065.59;8351578;28;20427;-65
2022/04/05 07:27:27;;;;;;;8.37;5.53;;;;;;;7.98;62.00;97071.22;8351611;28;20244;-65
2022/04/05 07:31:30;;;;;;;6.80;5.40;;;;;;;7.94;62.60;97074.81;8351360;28;20231;-64
2022/04/05 07:35:33;;;;;;;6.00;5.07;;;;;;;7.80;62.49;97072.91;8351067;28;20239;-64
2022/04/05 07:39:37;;;;;;;5.40;4.90;;;;;;;8.15;61.46;97066.06;8350817;28;20243;-64
2022/04/05 07:43:40;;;;;;;6.37;5.17;;;;;;;8.10;62.01;97064.63;8350925;28;20224;-65
2022/04/05 07:47:46;;;;;;;5.23;4.73;;;;;;;8.00;62.11;97067.66;8350631;28;20565;-65
2022/04/05 07:51:49;;;;;;;6.63;5.70;;;;;;;8.15;62.27;97072.97;8350750;28;20236;-64
2022/04/05 07:55:54;;;;;;;6.60;3.10;;;;;;;10.39;79.05;97077.53;8356795;28;20238;-64
2022/04/05 07:59:58;;;;;;;7.57;5.10;;;;;;;10.20;58.92;97068.19;8363619;28;20551;-63
2022/04/05 08:04:02;;;;;;;8.00;4.27;;;;;;;11.18;59.03;97079.75;8350327;28;20290;-63
2022/04/05 08:08:05;;;;;;;4.93;4.20;;;;;;;10.60;55.87;97080.63;8350078;28;20309;-62
2022/04/05 08:12:13;;;;;;;6.57;3.90;;;;;;;10.54;56.81;97082.63;8349461;28;20442;-62
2022/04/05 08:16:16;;;;;;;4.80;4.00;;;;;;;10.05;57.89;97087.19;8348847;28;20578;-62
2022/04/05 08:20:20;;;;;;;6.97;4.40;;;;;;;9.44;57.72;97089.63;8349501;28;20300;-62
2022/04/05 08:24:23;;;;;;;4.33;3.80;;;;;;;9.34;58.50;97091.03;8349666;28;20244;-63
2022/04/05 08:28:28;;;;;;;4.87;4.37;;;;;;;9.08;59.01;97089.81;8349637;28;20258;-63
2022/04/05 08:32:31;;;;;;;4.80;3.97;;;;;;;8.89;59.42;97098.53;8347137;28;20295;-62
2022/04/05 08:36:34;;;;;;;4.73;4.00;;;;;;;8.93;59.85;97102.63;8349058;28;20228;-62
2022/04/05 08:40:37;;;;;;;5.50;4.33;;;;;;;8.99;59.51;97094.56;8349183;28;20470;-61
2022/04/05 08:44:43;;;;;;;5.57;3.77;;;;;;;8.97;59.17;97108.47;8349149;28;20291;-61
2022/04/05 08:48:48;;;;;;;4.87;4.10;;;;;;;8.87;59.36;97100.38;8349046;28;20228;-61
2022/04/05 08:52:51;;;;;;;4.40;4.00;;;;;;;8.60;60.91;97111.19;8321337;28;20279;-62
2022/04/05 08:56:54;;;;;;;4.60;4.00;;;;;;;8.73;60.02;97113.13;8324585;28;20232;-62
2022/04/05 09:00:59;;;;;;;5.10;4.10;;;;;;;8.70;60.44;97119.28;8348445;28;20243;-61
2022/04/05 09:05:05;;;;;;;4.50;3.70;;;;;;;8.96;59.44;97120.53;8347951;28;20252;-61
2022/04/05 09:09:10;;;;;;;5.60;4.10;;;;;;;8.67;60.36;97119.44;8348072;28;20246;-61
2022/04/05 09:13:14;;;;;;;5.00;4.00;;;;;;;8.77;60.27;97115.47;8347497;28;20224;-62
2022/04/05 09:27:21;;;;;;;4.30;3.90;;;;;;;8.84;60.31;97118.59;8346977;28;20228;-61
2022/04/05 09:31:24;;;;;;;5.43;4.10;;;;;;;8.87;61.08;97128.78;8347620;28;20247;-60
2022/04/05 09:35:32;;;;;;;4.93;4.13;;;;;;;8.92;60.55;97123.38;8347496;28;20239;-61
2022/04/05 09:39:38;;;;;;;4.37;3.93;;;;;;;9.04;60.08;97124.47;8347336;28;20236;-61
2022/04/05 09:43:57;;;;;;;5.00;4.50;;;;;;;9.07;60.49;97130.31;8346773;28;20310;-61
2022/04/05 09:48:04;;;;;;;4.83;4.33;;;;;;;9.12;59.76;97122.31;8347370;28;20231;-61
2022/04/05 09:52:22;;;;;;;5.73;4.47;;;;;;;9.16;59.99;97135.00;8347040;28;20240;-62
2022/04/05 09:56:28;;;;;;;5.10;4.13;;;;;;;9.35;60.03;97129.72;8346837;28;20252;-62
2022/04/05 10:00:32;;;;;;;5.13;4.10;;;;;;;9.45;59.11;97126.66;8346976;28;20236;-61
2022/04/05 10:04:35;;;;;;;6.13;4.33;;;;;;;9.25;59.28;97122.53;8346877;28;20228;-61
2022/04/05 10:08:41;;;;;;;4.93;3.97;;;;;;;9.30;59.77;97131.72;8346881;28;20239;-61
2022/04/05 10:12:44;;;;;;;5.73;4.50;;;;;;;9.42;59.11;97117.28;8346868;28;20231;-61
2022/04/05 10:16:51;;;;;;;4.53;4.13;;;;;;;9.75;59.33;97125.00;8346919;28;20232;-62
2022/04/05 10:20:55;;;;;;;4.27;3.87;;;;;;;9.66;59.20;97129.84;8346850;28;20232;-61
2022/04/05 10:24:59;;;;;;;5.97;3.90;;;;;;;9.98;58.12;97126.31;8346995;28;20236;-62
2022/04/05 10:29:05;;;;;;;5.50;3.90;;;;;;;10.07;57.57;97124.13;8346550;28;20567;-61
2022/04/05 10:33:16;;;;;;;5.20;3.77;;;;;;;10.05;57.53;97132.00;8346324;28;20593;-64
2022/04/05 10:37:20;;;;;;;4.07;3.50;;;;;;;9.92;57.97;97129.25;8346110;28;20241;-61
2022/04/05 10:41:24;;;;;;;5.37;3.93;;;;;;;10.17;57.50;97133.06;8345798;28;20236;-63
2022/04/05 10:45:29;;;;;;;5.33;4.40;;;;;;;10.03;57.27;97140.75;8346252;28;20240;-62
2022/04/05 10:49:39;;;;;;;5.33;3.90;;;;;;;9.98;57.80;97128.91;8345980;28;20236;-61
2022/04/05 10:54:17;;;;;;;5.67;4.00;;;;;;;10.07;57.93;97130.16;8346238;28;20417;-62
2022/04/05 10:58:11;;;;;;;4.53;3.93;;;;;;;10.02;57.62;97134.75;8351269;28;20232;-62
2022/04/05 11:02:35;;;;;;;6.70;3.90;;;;;;;9.96;57.62;97125.56;8351586;28;20232;-61
2022/04/05 11:07:13;;;;;;;4.40;4.00;;;;;;;10.18;57.40;97134.72;8352029;28;20239;-61
2022/04/05 11:11:16;;;;;;;4.50;4.10;;;;;;;10.01;57.47;97133.06;8351535;28;20243;-62
2022/04/05 11:15:20;;;;;;;11.23;9.17;;;;;;;10.13;57.36;97129.81;8351603;28;20236;-62
2022/04/05 11:19:27;;;;;;;6.60;5.87;;;;;;;9.96;58.15;97124.75;8351074;28;20232;-62
2022/04/05 11:23:51;;;;;;;9.23;7.17;;;;;;;9.83;58.40;97119.41;8350055;28;20236;-61
2022/04/05 11:28:09;;;;;;;7.13;6.43;;;;;;;9.91;58.96;97124.16;8348147;28;20232;-62
2022/04/05 11:32:27;;;;;;;6.20;5.60;;;;;;;10.08;58.81;97118.88;8347251;28;20257;-62
2022/04/05 11:36:30;;;;;;;6.10;5.50;;;;;;;10.27;58.63;97113.50;8350214;28;20511;-61
2022/04/05 11:40:41;;;;;;;6.13;4.70;;;;;;;10.44;57.80;97110.00;8348921;28;20239;-62
2022/04/05 11:44:49;;;;;;;4.67;3.93;;;;;;;10.53;56.71;97106.06;8347796;28;20262;-60
2022/04/05 11:48:54;;;;;;;4.93;4.20;;;;;;;10.54;56.69;97118.88;8349291;28;20232;-60
2022/04/05 11:52:57;;;;;;;5.77;5.13;;;;;;;10.65;56.72;97118.28;8347848;28;20239;-61
2022/04/05 11:57:06;;;;;;;6.10;4.87;;;;;;;10.83;56.39;97128.47;8349833;28;20538;-61
2022/04/05 12:01:10;;;;;;;4.70;4.20;;;;;;;10.66;56.90;97129.47;8349282;28;20515;-62
2022/04/05 12:05:14;;;;;;;5.10;4.07;;;;;;;10.52;57.29;97133.69;8349062;28;20232;-61
2022/04/05 12:09:18;;;;;;;5.60;4.70;;;;;;;10.72;56.68;97129.94;8349058;28;20243;-61
2022/04/05 12:13:29;;;;;;;5.40;4.40;;;;;;;10.61;56.87;97134.91;8349182;28;20257;-60
2022/04/05 12:17:32;;;;;;;5.00;4.17;;;;;;;10.45;57.17;97134.97;8349045;28;20247;-61
2022/04/05 12:21:36;;;;;;;6.00;4.27;;;;;;;10.74;56.86;97130.69;8346476;28;20243;-61
2022/04/05 12:25:39;;;;;;;4.60;4.10;;;;;;;10.79;57.28;97132.19;8349576;28;20246;-61
2022/04/05 12:29:43;;;;;;;5.83;4.10;;;;;;;10.59;57.04;97134.16;8348837;28;20229;-61
2022/04/05 12:33:58;;;;;;;5.27;4.47;;;;;;;10.78;56.81;97128.75;8349098;28;20251;-61
2022/04/05 12:38:01;;;;;;;6.33;4.07;;;;;;;10.80;56.93;97120.91;8349161;28;20232;-61
2022/04/05 12:42:06;;;;;;;5.23;4.50;;;;;;;10.84;57.14;97112.84;8349033;28;20243;-60
2022/04/05 12:46:12;;;;;;;4.80;4.20;;;;;;;10.84;56.94;97109.44;8340443;28;20235;-61
2022/04/05 12:50:18;;;;;;;5.60;4.87;;;;;;;10.84;56.51;97094.72;8348522;28;20239;-60
2022/04/05 12:54:31;;;;;;;6.30;5.17;;;;;;;10.92;56.78;97104.63;8348693;28;20239;-60
2022/04/05 12:58:38;;;;;;;6.27;5.23;;;;;;;10.86;57.04;97116.19;8348569;28;20242;-61
2022/04/05 13:02:44;;;;;;;6.00;5.30;;;;;;;10.86;57.14;97115.38;8348370;28;20543;-62
2022/04/05 13:06:53;;;;;;;6.47;5.40;;;;;;;10.76;57.44;97112.47;8348530;28;20417;-61
2022/04/05 13:10:56;;;;;;;7.23;5.20;;;;;;;11.05;56.78;97118.53;8348343;28;20546;-62
2022/04/05 13:15:10;;;;;;;5.33;4.83;;;;;;;11.37;55.89;97110.56;8348278;28;20274;-61
2022/04/05 13:19:17;;;;;;;6.70;5.43;;;;;;;11.26;56.18;97121.56;8347202;28;20228;-61
2022/04/05 13:23:21;;;;;;;5.70;4.53;;;;;;;11.13;56.84;97120.66;8348061;28;20438;-62
2022/04/05 13:27:25;;;;;;;5.73;4.50;;;;;;;11.33;56.29;97122.06;8347378;28;20232;-61
2022/04/05 13:31:32;;;;;;;6.40;4.70;;;;;;;11.25;56.50;97119.06;8347361;28;20613;-61
2022/04/05 13:35:37;;;;;;;6.93;4.53;;;;;;;11.03;57.22;97115.19;8347763;28;20570;-62
2022/04/05 13:39:40;;;;;;;5.30;4.80;;;;;;;11.03;57.19;97107.41;8345005;28;20231;-62
2022/04/05 13:43:46;;;;;;;5.67;4.60;;;;;;;11.07;57.06;97102.88;8346939;28;20235;-61
2022/04/05 13:47:50;;;;;;;5.10;4.60;;;;;;;11.21;56.97;97107.22;8346932;28;20239;-61
2022/04/05 13:51:57;;;;;;;5.87;5.27;;;;;;;11.35;56.51;97102.06;8347098;28;20251;-61
2022/04/05 13:56:20;;;;;;;6.20;4.97;;;;;;;11.37;56.72;97104.56;8346229;28;20231;-61
2022/04/05 14:00:23;;;;;;;6.03;5.00;;;;;;;11.36;56.44;97106.28;8346925;28;20242;-61
2022/04/05 14:04:26;;;;;;;5.63;4.97;;;;;;;11.43;56.60;97094.63;8346894;28;20308;-61
2022/04/05 14:08:31;;;;;;;9.57;7.20;;;;;;;11.49;56.52;97096.84;8346742;28;20244;-61
2022/04/05 14:12:34;;;;;;;6.03;5.43;;;;;;;11.62;56.08;97102.09;8346882;28;20255;-61
2022/04/05 14:16:37;;;;;;;6.87;5.97;;;;;;;11.69;55.77;97099.94;8346815;28;20228;-60
2022/04/05 14:20:40;;;;;;;5.40;4.90;;;;;;;11.67;56.07;97097.47;8346692;28;20270;-61
2022/04/05 14:24:45;;;;;;;6.80;4.90;;;;;;;11.47;56.75;97090.91;8346218;28;20232;-61
2022/04/05 14:28:52;;;;;;;5.47;4.97;;;;;;;11.41;56.82;97099.06;8347460;28;20231;-60
2022/04/05 14:32:55;;;;;;;5.87;5.20;;;;;;;11.28;57.08;97100.75;8353181;28;20398;-61
2022/04/05 14:36:58;;;;;;;5.60;5.10;;;;;;;11.28;57.26;97092.97;8353216;28;20259;-61
2022/04/05 14:41:04;;;;;;;5.90;4.87;;;;;;;11.36;57.12;97093.34;8353025;28;20232;-60
2022/04/05 14:45:08;;;;;;;5.17;4.67;;;;;;;11.41;57.30;97093.88;8352929;28;20444;-61
2022/04/05 14:49:27;;;;;;;5.33;4.83;;;;;;;11.34;57.30;97096.00;8345431;28;20231;-60
2022/04/05 14:53:30;;;;;;;5.50;4.30;;;;;;;11.40;57.32;97097.41;8352347;28;20232;-60
2022/04/05 14:57:34;;;;;;;5.17;4.70;;;;;;;11.24;57.45;97107.06;8352263;28;20232;-61
2022/04/05 15:01:42;;;;;;;5.20;4.70;;;;;;;11.39;57.35;97100.09;8352019;28;20239;-61
2022/04/05 15:05:45;;;;;;;6.50;5.00;;;;;;;11.33;57.40;97102.13;8351683;28;20228;-60
2022/04/05 15:09:50;;;;;;;5.60;5.00;;;;;;;11.19;57.99;97106.50;8350958;28;20546;-61
2022/04/05 15:13:54;;;;;;;5.67;5.17;;;;;;;11.17;58.08;97085.03;8349914;28;20504;-60
2022/04/05 15:18:10;;;;;;;5.53;4.80;;;;;;;11.08;58.47;97081.22;8339233;28;20258;-61
2022/04/05 15:22:13;;;;;;;6.70;5.30;;;;;;;11.41;57.34;97096.47;8351025;28;20244;-60
2022/04/05 15:26:16;;;;;;;5.43;4.93;;;;;;;11.06;58.50;97089.09;8351289;28;20231;-61
2022/04/05 15:30:22;;;;;;;6.00;5.40;;;;;;;11.04;58.47;97090.09;8350998;28;20256;-61
2022/04/05 15:34:25;;;;;;;5.40;4.80;;;;;;;11.34;57.60;97088.25;8351232;28;20236;-61
2022/04/05 15:38:48;;;;;;;5.53;5.00;;;;;;;11.25;57.93;97090.56;8350386;28;20223;-61
2022/04/05 15:42:51;;;;;;;10.43;8.50;;;;;;;11.40;57.72;97094.81;8349964;28;20448;-61
2022/04/05 15:46:56;;;;;;;5.70;5.10;;;;;;;11.19;58.08;97099.53;8350010;28;20236;-61
2022/04/05 15:51:00;;;;;;;5.93;5.43;;;;;;;11.30;58.08;97107.50;8350643;28;20286;-61
2022/04/05 15:55:03;;;;;;;5.13;4.57;;;;;;;11.37;57.82;97102.78;8349435;28;20539;-60
2022/04/05 15:59:06;;;;;;;6.37;5.67;;;;;;;11.32;58.43;97104.81;8350327;28;20331;-60
2022/04/05 16:03:11;;;;;;;6.70;5.33;;;;;;;11.30;58.12;97109.25;8349711;28;20255;-60
2022/04/05 16:07:16;;;;;;;9.23;5.77;;;;;;;11.33;58.29;97109.09;8350269;28;20438;-60
2022/04/05 16:11:19;;;;;;;6.50;5.80;;;;;;;11.46;57.97;97106.56;8349701;28;20232;-60
2022/04/05 16:15:22;;;;;;;6.90;6.03;;;;;;;11.42;58.29;97103.31;8350144;28;20440;-60
2022/04/05 16:19:27;;;;;;;6.43;5.83;;;;;;;11.20;58.73;97105.59;8349614;28;20566;-60
2022/04/05 16:23:30;;;;;;;9.57;8.00;;;;;;;10.98;59.33;97099.06;8348960;28;20236;-60
2022/04/05 16:27:32;;;;;;;8.53;6.10;;;;;;;11.46;58.06;97099.63;8349923;28;20231;-60
2022/04/05 16:31:35;;;;;;;6.90;6.20;;;;;;;11.40;58.40;97096.56;8349711;28;20228;-60
2022/04/05 16:35:41;;;;;;;10.43;6.60;;;;;;;11.37;58.49;97092.41;8349511;28;20252;-60
2022/04/05 16:39:45;;;;;;;6.27;5.67;;;;;;;11.19;59.09;97096.13;8349308;28;20236;-60
2022/04/05 16:43:47;;;;;;;8.20;6.10;;;;;;;11.22;59.04;97091.59;8349321;28;20423;-60
2022/04/05 16:47:53;;;;;;;7.63;6.40;;;;;;;11.11;59.72;97088.81;8348563;28;20230;-61
2022/04/05 16:51:58;;;;;;;7.50;6.80;;;;;;;11.15;60.14;97093.72;8348529;28;20240;-61
2022/04/05 16:56:01;;;;;;;6.73;6.03;;;;;;;11.13;60.61;97100.75;8347763;28;20232;-60
2022/04/05 17:00:05;;;;;;;7.10;6.40;;;;;;;11.12;60.99;97090.50;8348426;28;20298;-60
2022/04/05 17:04:11;;;;;;;7.20;6.17;;;;;;;11.22;60.39;97091.59;8347679;28;20242;-60
2022/04/05 17:08:17;;;;;;;7.80;7.00;;;;;;;11.09;61.35;97090.66;8347620;28;20262;-60
2022/04/05 17:12:20;;;;;;;7.63;6.83;;;;;;;11.15;61.36;97091.13;8348091;28;20582;-60
2022/04/05 17:16:23;;;;;;;8.17;6.37;;;;;;;11.05;60.84;97091.78;8348267;28;20239;-60
2022/04/05 17:20:26;;;;;;;6.40;5.80;;;;;;;11.20;60.74;97096.03;8348172;28;20239;-60
2022/04/05 17:24:31;;;;;;;7.47;6.63;;;;;;;11.06;61.11;97090.84;8347072;28;20243;-59
2022/04/05 17:28:34;;;;;;;43.47;7.73;;;;;;;12.94;69.59;97089.28;8347191;28;20232;-60
2022/04/05 17:32:37;;;;;;;19.70;5.97;;;;;;;13.45;63.16;97097.06;8347652;28;20239;-69
2022/04/05 17:36:41;;;;;;;6.67;6.03;;;;;;;12.34;57.51;97094.13;8347845;28;20235;-65
2022/04/05 17:40:47;;;;;;;5.80;5.20;;;;;;;11.88;58.74;97097.03;8347534;28;20232;-65
2022/04/05 17:44:50;;;;;;;8.20;7.40;;;;;;;11.63;59.80;97092.56;8347393;28;20238;-66
2022/04/05 17:48:53;;;;;;;6.77;6.07;;;;;;;11.51;60.14;97091.56;8347238;28;20232;-67
2022/04/05 17:52:56;;;;;;;7.73;5.80;;;;;;;11.46;60.01;97101.38;8347382;28;20250;-66
2022/04/05 17:57:10;;;;;;;8.20;7.40;;;;;;;11.39;60.22;97106.13;8347349;28;20563;-66
2022/04/05 18:01:13;;;;;;;6.27;5.67;;;;;;;11.21;60.99;97105.47;8346805;28;20243;-66
2022/04/05 18:05:16;;;;;;;9.03;6.50;;;;;;;11.16;60.87;97112.69;8346047;28;20244;-65
2022/04/05 18:09:19;;;;;;;8.87;8.03;;;;;;;11.17;61.48;97114.34;8346916;28;20239;-65
2022/04/05 18:13:23;;;;;;;14.40;12.90;;;;;;;11.29;61.45;97117.94;8346634;28;20270;-65
2022/04/05 18:17:27;;;;;;;11.07;6.77;;;;;;;11.14;61.66;97122.31;8345452;28;20297;-65
2022/04/05 18:21:30;;;;;;;5.73;5.13;;;;;;;11.17;61.99;97118.72;8346341;28;20298;-65
2022/04/05 18:25:33;;;;;;;7.70;6.40;;;;;;;11.05;62.24;97123.69;8346806;28;20239;-65
2022/04/05 18:29:38;;;;;;;7.83;6.13;;;;;;;10.94;62.79;97134.69;8346457;28;20235;-65
2022/04/05 18:33:41;;;;;;;6.80;6.10;;;;;;;11.06;62.90;97125.38;8345852;28;20247;-65
2022/04/05 18:37:44;;;;;;;7.30;6.07;;;;;;;11.06;63.20;97129.72;8345094;28;20232;-65
2022/04/05 18:41:48;;;;;;;7.05;6.45;;;;;;;11.66;61.06;97137.28;8344109;28;20411;-65
2022/04/05 18:45:53;;;;;;;8.53;6.20;;;;;;;11.25;62.71;97138.06;8346443;28;20250;-65
2022/04/05 18:49:56;;;;;;;7.15;6.53;;;;;;;11.70;61.31;97150.91;8345293;28;20580;-66
2022/04/05 18:53:59;;;;;;;7.17;6.47;;;;;;;11.06;63.61;97140.94;8346767;28;20240;-65
2022/04/05 18:58:02;;;;;;;7.27;6.60;;;;;;;11.00;63.72;97138.69;8346356;28;20430;-65
2022/04/05 19:02:07;;;;;;;7.13;6.43;;;;;;;11.07;63.53;97147.75;8346289;28;20242;-66
2022/04/05 19:06:10;;;;;;;7.23;6.53;;;;;;;11.07;63.96;97157.31;8345991;28;20232;-65
2022/04/05 19:10:14;;;;;;;8.63;7.00;;;;;;;11.02;64.35;97159.31;8346756;28;20535;-65
2022/04/05 19:14:18;;;;;;;8.03;7.23;;;;;;;10.91;64.19;97162.56;8346624;28;20354;-65
2022/04/05 19:18:25;;;;;;;8.23;7.43;;;;;;;10.99;64.01;97154.34;8349559;28;20232;-65
2022/04/05 19:22:29;;;;;;;8.10;7.40;;;;;;;10.84;63.99;97164.66;8351767;28;20228;-66
2022/04/05 19:26:34;;;;;;;8.70;7.87;;;;;;;10.90;64.42;97163.47;8351506;28;20243;-65